< < Back
Terminal Aerodrome Forecast


Current Version              Previous Versions:   1  2  3  4  5  6  7  8  9  

Terminal Aerodrome Forecast

182
FTUS44 KBMX 250520
TAFBHM
TAF
KBHM 250520Z 2506/2606 27002KT P6SM SCT050 SCT250
     FM251400 32007KT P6SM SCT050
     FM260000 02004KT P6SM SCT250=

Latest METAR

411
SAUS70 KWBC 250800 RRC
MTRBHM
METAR KBHM 250753Z 00000KT 10SM CLR 26/23 A3007 RMK AO2 SLP174
T02560228


USA.gov is the U.S. government's official web portal to all federal, state and local government web resources and services.